sensor_id;sensor_type;location;lat;lon;timestamp;temperature;humidity
23703;DHT22;12030;50.376;8.762;2022-10-22T00:00:46;14.90;99.90
23703;DHT22;12030;50.376;8.762;2022-10-22T00:03:12;14.90;99.90
23703;DHT22;12030;50.376;8.762;2022-10-22T00:05:37;14.90;99.90
23703;DHT22;12030;50.376;8.762;2022-10-22T00:08:03;14.90;99.90
23703;DHT22;12030;50.376;8.762;2022-10-22T00:10:29;14.90;99.90
23703;DHT22;12030;50.376;8.762;2022-10-22T00:12:54;14.90;99.90
23703;DHT22;12030;50.376;8.762;2022-10-22T00:15:20;14.90;99.90
23703;DHT22;12030;50.376;8.762;2022-10-22T00:17:46;14.90;99.90
23703;DHT22;12030;50.376;8.762;2022-10-22T00:20:14;14.90;99.90
23703;DHT22;12030;50.376;8.762;2022-10-22T00:22:39;14.90;99.90
23703;DHT22;12030;50.376;8.762;2022-10-22T00:25:05;14.90;99.90
23703;DHT22;12030;50.376;8.762;2022-10-22T00:27:30;14.90;99.90
23703;DHT22;12030;50.376;8.762;2022-10-22T00:29:56;14.90;99.90
23703;DHT22;12030;50.376;8.762;2022-10-22T00:32:21;14.90;99.90
23703;DHT22;12030;50.376;8.762;2022-10-22T00:34:47;14.90;99.90
23703;DHT22;12030;50.376;8.762;2022-10-22T00:37:13;14.90;99.90
23703;DHT22;12030;50.376;8.762;2022-10-22T00:39:38;14.90;99.90
23703;DHT22;12030;50.376;8.762;2022-10-22T00:42:04;14.90;99.90
23703;DHT22;12030;50.376;8.762;2022-10-22T00:47:28;14.90;99.90
23703;DHT22;12030;50.376;8.762;2022-10-22T00:49:56;14.90;99.90
23703;DHT22;12030;50.376;8.762;2022-10-22T00:52:23;15.00;99.90
23703;DHT22;12030;50.376;8.762;2022-10-22T00:54:49;14.90;99.90
23703;DHT22;12030;50.376;8.762;2022-10-22T00:57:17;15.00;99.90
23703;DHT22;12030;50.376;8.762;2022-10-22T00:59:43;15.00;99.90
23703;DHT22;12030;50.376;8.762;2022-10-22T01:02:09;15.00;99.90
23703;DHT22;12030;50.376;8.762;2022-10-22T01:04:34;15.00;99.90
23703;DHT22;12030;50.376;8.762;2022-10-22T01:07:00;15.00;99.90
23703;DHT22;12030;50.376;8.762;2022-10-22T01:09:44;15.00;99.90
23703;DHT22;12030;50.376;8.762;2022-10-22T01:12:20;15.00;99.90
23703;DHT22;12030;50.376;8.762;2022-10-22T01:18:00;15.00;99.90
23703;DHT22;12030;50.376;8.762;2022-10-22T01:29:09;15.10;99.90
23703;DHT22;12030;50.376;8.762;2022-10-22T01:31:43;15.10;99.90
23703;DHT22;12030;50.376;8.762;2022-10-22T01:34:13;15.10;99.90
23703;DHT22;12030;50.376;8.762;2022-10-22T01:36:40;15.10;99.90
23703;DHT22;12030;50.376;8.762;2022-10-22T01:39:07;15.10;99.90
23703;DHT22;12030;50.376;8.762;2022-10-22T01:41:33;15.10;99.90
23703;DHT22;12030;50.376;8.762;2022-10-22T01:43:59;15.20;99.90
23703;DHT22;12030;50.376;8.762;2022-10-22T01:46:28;15.20;99.90
23703;DHT22;12030;50.376;8.762;2022-10-22T01:49:15;15.20;99.90
23703;DHT22;12030;50.376;8.762;2022-10-22T01:52:02;15.20;99.90
23703;DHT22;12030;50.376;8.762;2022-10-22T01:54:38;15.20;99.90
23703;DHT22;12030;50.376;8.762;2022-10-22T01:57:13;15.30;99.90
23703;DHT22;12030;50.376;8.762;2022-10-22T01:59:56;15.30;99.90
23703;DHT22;12030;50.376;8.762;2022-10-22T02:03:01;15.30;99.90
23703;DHT22;12030;50.376;8.762;2022-10-22T02:05:39;15.30;99.90
23703;DHT22;12030;50.376;8.762;2022-10-22T02:08:13;15.30;99.90
23703;DHT22;12030;50.376;8.762;2022-10-22T02:10:42;15.30;99.90
23703;DHT22;12030;50.376;8.762;2022-10-22T02:15:55;15.40;99.90
23703;DHT22;12030;50.376;8.762;2022-10-22T02:18:26;15.40;99.90
23703;DHT22;12030;50.376;8.762;2022-10-22T02:20:53;15.40;99.90
23703;DHT22;12030;50.376;8.762;2022-10-22T02:23:20;15.30;99.90
23703;DHT22;12030;50.376;8.762;2022-10-22T02:25:48;15.30;99.90
23703;DHT22;12030;50.376;8.762;2022-10-22T02:28:21;15.40;99.90
23703;DHT22;12030;50.376;8.762;2022-10-22T02:30:52;15.30;99.90
23703;DHT22;12030;50.376;8.762;2022-10-22T02:33:25;15.30;99.90
23703;DHT22;12030;50.376;8.762;2022-10-22T02:35:52;15.30;99.90
23703;DHT22;12030;50.376;8.762;2022-10-22T02:38:20;15.30;99.90
23703;DHT22;12030;50.376;8.762;2022-10-22T02:40:47;15.20;99.90
23703;DHT22;12030;50.376;8.762;2022-10-22T02:43:13;15.10;99.90
23703;DHT22;12030;50.376;8.762;2022-10-22T02:45:38;15.10;99.90
23703;DHT22;12030;50.376;8.762;2022-10-22T02:48:04;15.10;99.90
23703;DHT22;12030;50.376;8.762;2022-10-22T02:50:30;15.10;99.90
23703;DHT22;12030;50.376;8.762;2022-10-22T02:52:56;15.10;99.90
23703;DHT22;12030;50.376;8.762;2022-10-22T02:55:21;15.10;99.90
23703;DHT22;12030;50.376;8.762;2022-10-22T02:57:47;15.10;99.90
23703;DHT22;12030;50.376;8.762;2022-10-22T03:00:13;15.10;99.90
23703;DHT22;12030;50.376;8.762;2022-10-22T03:02:38;15.10;99.90
23703;DHT22;12030;50.376;8.762;2022-10-22T03:05:04;15.10;99.90
23703;DHT22;12030;50.376;8.762;2022-10-22T03:07:30;15.10;99.90
23703;DHT22;12030;50.376;8.762;2022-10-22T03:09:55;15.10;99.90
23703;DHT22;12030;50.376;8.762;2022-10-22T03:12:21;15.10;99.90
23703;DHT22;12030;50.376;8.762;2022-10-22T03:14:46;15.10;99.90
23703;DHT22;12030;50.376;8.762;2022-10-22T03:17:12;15.00;99.90
23703;DHT22;12030;50.376;8.762;2022-10-22T03:19:38;15.00;99.90
23703;DHT22;12030;50.376;8.762;2022-10-22T03:22:16;15.10;99.90
23703;DHT22;12030;50.376;8.762;2022-10-22T03:24:45;15.10;99.90
23703;DHT22;12030;50.376;8.762;2022-10-22T03:27:13;15.10;99.90
23703;DHT22;12030;50.376;8.762;2022-10-22T03:29:40;15.10;99.90
23703;DHT22;12030;50.376;8.762;2022-10-22T03:32:06;15.10;99.90
23703;DHT22;12030;50.376;8.762;2022-10-22T03:34:32;15.10;99.90
23703;DHT22;12030;50.376;8.762;2022-10-22T03:36:59;15.10;99.90
23703;DHT22;12030;50.376;8.762;2022-10-22T03:39:27;15.10;99.90
23703;DHT22;12030;50.376;8.762;2022-10-22T03:41:53;15.10;99.90
23703;DHT22;12030;50.376;8.762;2022-10-22T03:44:19;15.10;99.90
23703;DHT22;12030;50.376;8.762;2022-10-22T03:46:46;15.00;99.90
23703;DHT22;12030;50.376;8.762;2022-10-22T03:49:11;15.00;99.90
23703;DHT22;12030;50.376;8.762;2022-10-22T03:51:37;15.00;99.90
23703;DHT22;12030;50.376;8.762;2022-10-22T03:54:03;15.10;99.90
23703;DHT22;12030;50.376;8.762;2022-10-22T03:56:29;15.10;99.90
23703;DHT22;12030;50.376;8.762;2022-10-22T03:58:56;15.00;99.90
23703;DHT22;12030;50.376;8.762;2022-10-22T04:01:23;15.00;99.90
23703;DHT22;12030;50.376;8.762;2022-10-22T04:03:49;15.00;99.90
23703;DHT22;12030;50.376;8.762;2022-10-22T04:06:15;15.00;99.90
23703;DHT22;12030;50.376;8.762;2022-10-22T04:08:42;15.00;99.90
23703;DHT22;12030;50.376;8.762;2022-10-22T04:11:09;15.00;99.90
23703;DHT22;12030;50.376;8.762;2022-10-22T04:13:34;15.00;99.90
23703;DHT22;12030;50.376;8.762;2022-10-22T04:16:10;15.00;99.90
23703;DHT22;12030;50.376;8.762;2022-10-22T04:18:36;15.10;99.90
23703;DHT22;12030;50.376;8.762;2022-10-22T04:21:02;15.00;99.90
23703;DHT22;12030;50.376;8.762;2022-10-22T04:23:28;15.10;99.90
23703;DHT22;12030;50.376;8.762;2022-10-22T04:26:01;15.10;99.90
23703;DHT22;12030;50.376;8.762;2022-10-22T04:28:28;15.10;99.90
23703;DHT22;12030;50.376;8.762;2022-10-22T04:30:53;15.20;99.90
23703;DHT22;12030;50.376;8.762;2022-10-22T04:33:19;15.20;99.90
23703;DHT22;12030;50.376;8.762;2022-10-22T04:35:45;15.20;99.90
23703;DHT22;12030;50.376;8.762;2022-10-22T04:38:11;15.10;99.90
23703;DHT22;12030;50.376;8.762;2022-10-22T04:40:36;15.10;99.90
23703;DHT22;12030;50.376;8.762;2022-10-22T04:43:02;15.10;99.90
23703;DHT22;12030;50.376;8.762;2022-10-22T04:45:27;15.20;99.90
23703;DHT22;12030;50.376;8.762;2022-10-22T04:47:53;15.20;99.90
23703;DHT22;12030;50.376;8.762;2022-10-22T04:50:19;15.20;99.90
23703;DHT22;12030;50.376;8.762;2022-10-22T04:52:44;15.10;99.90
23703;DHT22;12030;50.376;8.762;2022-10-22T04:55:10;15.10;99.90
23703;DHT22;12030;50.376;8.762;2022-10-22T04:57:35;15.20;99.90
23703;DHT22;12030;50.376;8.762;2022-10-22T05:00:01;15.10;99.90
23703;DHT22;12030;50.376;8.762;2022-10-22T05:02:27;15.10;99.90
23703;DHT22;12030;50.376;8.762;2022-10-22T05:04:52;15.10;99.90
23703;DHT22;12030;50.376;8.762;2022-10-22T05:07:18;15.00;99.90
23703;DHT22;12030;50.376;8.762;2022-10-22T05:09:43;15.00;99.90
23703;DHT22;12030;50.376;8.762;2022-10-22T05:12:09;15.00;99.90
23703;DHT22;12030;50.376;8.762;2022-10-22T05:14:34;14.90;99.90
23703;DHT22;12030;50.376;8.762;2022-10-22T05:17:00;14.90;99.90
23703;DHT22;12030;50.376;8.762;2022-10-22T05:19:28;14.90;99.90
23703;DHT22;12030;50.376;8.762;2022-10-22T05:21:59;14.90;99.90
23703;DHT22;12030;50.376;8.762;2022-10-22T05:24:26;14.80;99.90
23703;DHT22;12030;50.376;8.762;2022-10-22T05:26:54;14.80;99.90
23703;DHT22;12030;50.376;8.762;2022-10-22T05:29:22;14.70;99.90
23703;DHT22;12030;50.376;8.762;2022-10-22T05:31:48;14.70;99.90
23703;DHT22;12030;50.376;8.762;2022-10-22T05:34:14;14.60;99.90
23703;DHT22;12030;50.376;8.762;2022-10-22T05:36:40;14.60;99.90
23703;DHT22;12030;50.376;8.762;2022-10-22T05:39:05;14.50;99.90
23703;DHT22;12030;50.376;8.762;2022-10-22T05:41:32;14.60;99.90
23703;DHT22;12030;50.376;8.762;2022-10-22T05:43:59;14.60;99.90
23703;DHT22;12030;50.376;8.762;2022-10-22T05:46:26;14.60;99.90
23703;DHT22;12030;50.376;8.762;2022-10-22T05:51:20;14.60;99.90
23703;DHT22;12030;50.376;8.762;2022-10-22T05:53:50;14.60;99.90
23703;DHT22;12030;50.376;8.762;2022-10-22T05:56:16;14.50;99.90
23703;DHT22;12030;50.376;8.762;2022-10-22T05:58:43;14.50;99.90
23703;DHT22;12030;50.376;8.762;2022-10-22T06:01:15;14.40;99.90
23703;DHT22;12030;50.376;8.762;2022-10-22T06:03:41;14.30;99.90
23703;DHT22;12030;50.376;8.762;2022-10-22T06:06:19;14.30;99.90
23703;DHT22;12030;50.376;8.762;2022-10-22T06:08:47;14.30;99.90
23703;DHT22;12030;50.376;8.762;2022-10-22T06:11:14;14.30;99.90
23703;DHT22;12030;50.376;8.762;2022-10-22T06:13:39;14.30;99.90
23703;DHT22;12030;50.376;8.762;2022-10-22T06:16:05;14.30;99.90
23703;DHT22;12030;50.376;8.762;2022-10-22T06:18:32;14.20;99.90
23703;DHT22;12030;50.376;8.762;2022-10-22T06:21:03;14.20;99.90
23703;DHT22;12030;50.376;8.762;2022-10-22T06:23:29;14.20;99.90
23703;DHT22;12030;50.376;8.762;2022-10-22T06:25:55;14.20;99.90
23703;DHT22;12030;50.376;8.762;2022-10-22T06:28:21;14.20;99.90
23703;DHT22;12030;50.376;8.762;2022-10-22T06:30:46;14.20;99.90
23703;DHT22;12030;50.376;8.762;2022-10-22T06:33:12;14.20;99.90
23703;DHT22;12030;50.376;8.762;2022-10-22T06:35:37;14.20;99.90
23703;DHT22;12030;50.376;8.762;2022-10-22T06:38:03;14.10;99.90
23703;DHT22;12030;50.376;8.762;2022-10-22T06:40:29;14.20;99.90
23703;DHT22;12030;50.376;8.762;2022-10-22T06:42:57;14.20;99.90
23703;DHT22;12030;50.376;8.762;2022-10-22T06:45:23;14.20;99.90
23703;DHT22;12030;50.376;8.762;2022-10-22T06:47:48;14.20;99.90
23703;DHT22;12030;50.376;8.762;2022-10-22T06:50:14;14.20;99.90
23703;DHT22;12030;50.376;8.762;2022-10-22T06:52:40;14.20;99.90
23703;DHT22;12030;50.376;8.762;2022-10-22T06:55:05;14.30;99.90
23703;DHT22;12030;50.376;8.762;2022-10-22T06:57:31;14.30;99.90
23703;DHT22;12030;50.376;8.762;2022-10-22T06:59:56;14.30;99.90
23703;DHT22;12030;50.376;8.762;2022-10-22T07:02:22;14.30;99.90
23703;DHT22;12030;50.376;8.762;2022-10-22T07:04:47;14.40;99.90
23703;DHT22;12030;50.376;8.762;2022-10-22T07:07:13;14.40;99.90
23703;DHT22;12030;50.376;8.762;2022-10-22T07:09:39;14.40;99.90
23703;DHT22;12030;50.376;8.762;2022-10-22T07:12:05;14.40;99.90
23703;DHT22;12030;50.376;8.762;2022-10-22T07:14:31;14.50;99.90
23703;DHT22;12030;50.376;8.762;2022-10-22T07:16:56;14.50;99.90
23703;DHT22;12030;50.376;8.762;2022-10-22T07:19:22;14.50;99.90
23703;DHT22;12030;50.376;8.762;2022-10-22T07:21:47;14.60;99.90
23703;DHT22;12030;50.376;8.762;2022-10-22T07:24:13;14.60;99.90
23703;DHT22;12030;50.376;8.762;2022-10-22T07:26:38;14.60;99.90
23703;DHT22;12030;50.376;8.762;2022-10-22T07:29:04;14.60;99.90
23703;DHT22;12030;50.376;8.762;2022-10-22T07:31:30;14.70;99.90
23703;DHT22;12030;50.376;8.762;2022-10-22T07:33:56;14.70;99.90
23703;DHT22;12030;50.376;8.762;2022-10-22T07:36:22;14.80;99.90
23703;DHT22;12030;50.376;8.762;2022-10-22T07:38:52;14.80;99.90
23703;DHT22;12030;50.376;8.762;2022-10-22T07:41:18;14.80;99.90
23703;DHT22;12030;50.376;8.762;2022-10-22T07:43:43;14.80;99.90
23703;DHT22;12030;50.376;8.762;2022-10-22T07:46:09;14.90;99.90
23703;DHT22;12030;50.376;8.762;2022-10-22T07:48:35;14.90;99.90
23703;DHT22;12030;50.376;8.762;2022-10-22T07:51:01;15.00;99.90
23703;DHT22;12030;50.376;8.762;2022-10-22T07:53:27;15.00;99.90
23703;DHT22;12030;50.376;8.762;2022-10-22T07:55:52;15.00;99.90
23703;DHT22;12030;50.376;8.762;2022-10-22T07:58:19;15.00;99.90
23703;DHT22;12030;50.376;8.762;2022-10-22T08:00:46;15.00;99.90
23703;DHT22;12030;50.376;8.762;2022-10-22T08:03:12;15.10;99.90
23703;DHT22;12030;50.376;8.762;2022-10-22T08:05:38;15.10;99.90
23703;DHT22;12030;50.376;8.762;2022-10-22T08:08:05;15.10;99.90
23703;DHT22;12030;50.376;8.762;2022-10-22T08:10:31;15.10;99.90
23703;DHT22;12030;50.376;8.762;2022-10-22T08:12:57;15.10;99.90
23703;DHT22;12030;50.376;8.762;2022-10-22T08:15:23;15.20;99.90
23703;DHT22;12030;50.376;8.762;2022-10-22T08:17:50;15.20;99.90
23703;DHT22;12030;50.376;8.762;2022-10-22T08:20:15;15.20;99.90
23703;DHT22;12030;50.376;8.762;2022-10-22T08:22:41;15.30;99.90
23703;DHT22;12030;50.376;8.762;2022-10-22T08:25:07;15.30;99.90
23703;DHT22;12030;50.376;8.762;2022-10-22T08:27:33;15.30;99.90
23703;DHT22;12030;50.376;8.762;2022-10-22T08:29:58;15.40;99.90
23703;DHT22;12030;50.376;8.762;2022-10-22T08:32:24;15.40;99.90
23703;DHT22;12030;50.376;8.762;2022-10-22T08:34:50;15.40;99.90
23703;DHT22;12030;50.376;8.762;2022-10-22T08:37:15;15.50;99.90
23703;DHT22;12030;50.376;8.762;2022-10-22T08:39:42;15.50;99.90
23703;DHT22;12030;50.376;8.762;2022-10-22T08:47:51;15.50;99.90
23703;DHT22;12030;50.376;8.762;2022-10-22T08:50:29;15.50;99.90
23703;DHT22;12030;50.376;8.762;2022-10-22T08:52:58;15.60;99.90
23703;DHT22;12030;50.376;8.762;2022-10-22T08:55:27;15.60;99.90
23703;DHT22;12030;50.376;8.762;2022-10-22T09:00:36;15.60;99.90
23703;DHT22;12030;50.376;8.762;2022-10-22T09:08:14;15.60;99.90
23703;DHT22;12030;50.376;8.762;2022-10-22T09:10:45;15.70;99.90
23703;DHT22;12030;50.376;8.762;2022-10-22T09:13:16;15.80;99.90
23703;DHT22;12030;50.376;8.762;2022-10-22T09:15:48;15.80;99.90
23703;DHT22;12030;50.376;8.762;2022-10-22T09:18:38;15.90;99.90
23703;DHT22;12030;50.376;8.762;2022-10-22T09:24:02;16.00;99.90
23703;DHT22;12030;50.376;8.762;2022-10-22T09:26:32;16.10;99.90
23703;DHT22;12030;50.376;8.762;2022-10-22T09:28:59;16.40;99.90
23703;DHT22;12030;50.376;8.762;2022-10-22T09:31:26;16.50;99.90
23703;DHT22;12030;50.376;8.762;2022-10-22T09:33:54;16.60;99.90
23703;DHT22;12030;50.376;8.762;2022-10-22T09:36:22;16.70;99.90
23703;DHT22;12030;50.376;8.762;2022-10-22T09:38:50;16.70;99.90
23703;DHT22;12030;50.376;8.762;2022-10-22T09:41:17;16.60;99.90
23703;DHT22;12030;50.376;8.762;2022-10-22T09:43:46;16.70;99.90
23703;DHT22;12030;50.376;8.762;2022-10-22T09:46:21;16.70;99.90
23703;DHT22;12030;50.376;8.762;2022-10-22T09:51:52;16.60;99.90
23703;DHT22;12030;50.376;8.762;2022-10-22T09:56:54;16.80;99.90
23703;DHT22;12030;50.376;8.762;2022-10-22T09:59:31;16.80;99.90
23703;DHT22;12030;50.376;8.762;2022-10-22T10:02:19;16.80;99.90
23703;DHT22;12030;50.376;8.762;2022-10-22T10:04:47;16.80;99.90
23703;DHT22;12030;50.376;8.762;2022-10-22T10:07:21;16.80;99.90
23703;DHT22;12030;50.376;8.762;2022-10-22T10:09:48;16.80;99.90
23703;DHT22;12030;50.376;8.762;2022-10-22T10:23:45;17.00;99.90
23703;DHT22;12030;50.376;8.762;2022-10-22T10:26:34;17.10;99.90
23703;DHT22;12030;50.376;8.762;2022-10-22T10:29:24;17.20;99.90
23703;DHT22;12030;50.376;8.762;2022-10-22T10:34:47;17.30;99.90
23703;DHT22;12030;50.376;8.762;2022-10-22T10:37:24;17.40;99.90
23703;DHT22;12030;50.376;8.762;2022-10-22T10:42:45;17.50;99.90
23703;DHT22;12030;50.376;8.762;2022-10-22T10:45:21;17.60;99.90
23703;DHT22;12030;50.376;8.762;2022-10-22T10:53:03;18.10;99.90
23703;DHT22;12030;50.376;8.762;2022-10-22T10:55:48;18.30;99.90
23703;DHT22;12030;50.376;8.762;2022-10-22T10:58:25;18.30;99.90
23703;DHT22;12030;50.376;8.762;2022-10-22T11:00:58;18.30;99.90
23703;DHT22;12030;50.376;8.762;2022-10-22T11:03:52;18.20;99.90
23703;DHT22;12030;50.376;8.762;2022-10-22T11:06:24;18.10;99.90
23703;DHT22;12030;50.376;8.762;2022-10-22T11:08:58;18.10;99.90
23703;DHT22;12030;50.376;8.762;2022-10-22T11:11:30;18.00;99.90
23703;DHT22;12030;50.376;8.762;2022-10-22T11:14:04;18.00;99.90
23703;DHT22;12030;50.376;8.762;2022-10-22T11:16:38;18.10;99.90
23703;DHT22;12030;50.376;8.762;2022-10-22T11:22:47;18.10;99.90
23703;DHT22;12030;50.376;8.762;2022-10-22T11:25:14;18.10;99.90
23703;DHT22;12030;50.376;8.762;2022-10-22T11:27:56;18.20;99.90
23703;DHT22;12030;50.376;8.762;2022-10-22T11:30:27;18.20;99.90
23703;DHT22;12030;50.376;8.762;2022-10-22T11:32:59;18.20;99.90
23703;DHT22;12030;50.376;8.762;2022-10-22T11:35:32;18.20;99.90
23703;DHT22;12030;50.376;8.762;2022-10-22T11:38:00;18.20;99.90
23703;DHT22;12030;50.376;8.762;2022-10-22T11:43:24;18.20;99.90
23703;DHT22;12030;50.376;8.762;2022-10-22T11:45:49;18.20;99.90
23703;DHT22;12030;50.376;8.762;2022-10-22T11:48:26;18.30;99.90
23703;DHT22;12030;50.376;8.762;2022-10-22T11:50:57;18.30;99.90
23703;DHT22;12030;50.376;8.762;2022-10-22T11:55:51;18.30;99.90
23703;DHT22;12030;50.376;8.762;2022-10-22T12:01:16;18.30;99.90
23703;DHT22;12030;50.376;8.762;2022-10-22T12:03:48;18.30;99.90
23703;DHT22;12030;50.376;8.762;2022-10-22T12:17:24;18.30;99.90
23703;DHT22;12030;50.376;8.762;2022-10-22T12:19:29;18.30;99.90
23703;DHT22;12030;50.376;8.762;2022-10-22T12:21:59;18.50;99.90
23703;DHT22;12030;50.376;8.762;2022-10-22T12:24:30;18.50;99.90
23703;DHT22;12030;50.376;8.762;2022-10-22T12:26:56;18.50;99.90
23703;DHT22;12030;50.376;8.762;2022-10-22T12:29:22;18.70;99.90
23703;DHT22;12030;50.376;8.762;2022-10-22T12:31:49;18.70;99.90
23703;DHT22;12030;50.376;8.762;2022-10-22T12:34:18;18.90;99.90
23703;DHT22;12030;50.376;8.762;2022-10-22T12:36:46;19.00;99.90
23703;DHT22;12030;50.376;8.762;2022-10-22T12:39:22;19.10;99.90
23703;DHT22;12030;50.376;8.762;2022-10-22T12:41:51;19.20;99.90
23703;DHT22;12030;50.376;8.762;2022-10-22T12:44:17;19.30;99.90
23703;DHT22;12030;50.376;8.762;2022-10-22T12:46:44;19.20;99.90
23703;DHT22;12030;50.376;8.762;2022-10-22T12:49:20;19.20;99.90
23703;DHT22;12030;50.376;8.762;2022-10-22T12:51:47;19.30;99.90
23703;DHT22;12030;50.376;8.762;2022-10-22T12:54:33;19.30;99.90
23703;DHT22;12030;50.376;8.762;2022-10-22T12:57:00;19.30;99.90
23703;DHT22;12030;50.376;8.762;2022-10-22T12:59:33;19.40;99.90
23703;DHT22;12030;50.376;8.762;2022-10-22T13:02:00;19.30;99.90
23703;DHT22;12030;50.376;8.762;2022-10-22T13:04:36;19.30;99.90
23703;DHT22;12030;50.376;8.762;2022-10-22T13:12:26;19.10;99.90
23703;DHT22;12030;50.376;8.762;2022-10-22T13:14:52;19.00;99.90
23703;DHT22;12030;50.376;8.762;2022-10-22T13:17:38;18.90;99.90
23703;DHT22;12030;50.376;8.762;2022-10-22T13:20:18;18.80;99.90
23703;DHT22;12030;50.376;8.762;2022-10-22T13:23:18;18.70;99.90
23703;DHT22;12030;50.376;8.762;2022-10-22T13:26:14;18.70;99.90
23703;DHT22;12030;50.376;8.762;2022-10-22T13:28:41;18.60;99.90
23703;DHT22;12030;50.376;8.762;2022-10-22T13:31:23;18.60;99.90
23703;DHT22;12030;50.376;8.762;2022-10-22T13:33:53;18.40;99.90
23703;DHT22;12030;50.376;8.762;2022-10-22T13:36:19;18.40;99.90
23703;DHT22;12030;50.376;8.762;2022-10-22T13:38:45;18.40;99.90
23703;DHT22;12030;50.376;8.762;2022-10-22T13:41:22;18.50;99.90
23703;DHT22;12030;50.376;8.762;2022-10-22T13:43:49;18.50;99.90
23703;DHT22;12030;50.376;8.762;2022-10-22T13:46:15;18.50;99.90
23703;DHT22;12030;50.376;8.762;2022-10-22T13:48:41;18.70;99.90
23703;DHT22;12030;50.376;8.762;2022-10-22T13:51:40;18.90;99.90
23703;DHT22;12030;50.376;8.762;2022-10-22T13:54:16;19.00;99.90
23703;DHT22;12030;50.376;8.762;2022-10-22T13:56:42;19.00;99.90
23703;DHT22;12030;50.376;8.762;2022-10-22T13:59:08;19.10;99.90
23703;DHT22;12030;50.376;8.762;2022-10-22T14:01:35;19.10;99.90
23703;DHT22;12030;50.376;8.762;2022-10-22T14:04:03;19.10;99.90
23703;DHT22;12030;50.376;8.762;2022-10-22T14:06:30;19.10;99.90
23703;DHT22;12030;50.376;8.762;2022-10-22T14:08:59;19.10;99.90
23703;DHT22;12030;50.376;8.762;2022-10-22T14:11:26;19.10;99.90
23703;DHT22;12030;50.376;8.762;2022-10-22T14:13:53;19.00;99.90
23703;DHT22;12030;50.376;8.762;2022-10-22T14:16:22;18.90;99.90
23703;DHT22;12030;50.376;8.762;2022-10-22T14:18:49;18.80;99.90
23703;DHT22;12030;50.376;8.762;2022-10-22T14:21:16;18.70;99.90
23703;DHT22;12030;50.376;8.762;2022-10-22T14:23:44;18.70;99.90
23703;DHT22;12030;50.376;8.762;2022-10-22T14:26:30;18.60;99.90
23703;DHT22;12030;50.376;8.762;2022-10-22T14:28:58;18.50;99.90
23703;DHT22;12030;50.376;8.762;2022-10-22T14:31:24;18.50;99.90
23703;DHT22;12030;50.376;8.762;2022-10-22T14:33:50;18.60;99.90
23703;DHT22;12030;50.376;8.762;2022-10-22T14:36:17;18.60;99.90
23703;DHT22;12030;50.376;8.762;2022-10-22T14:38:45;18.70;99.90
23703;DHT22;12030;50.376;8.762;2022-10-22T14:41:17;18.70;99.90
23703;DHT22;12030;50.376;8.762;2022-10-22T14:43:44;18.70;99.90
23703;DHT22;12030;50.376;8.762;2022-10-22T14:46:11;18.60;99.90
23703;DHT22;12030;50.376;8.762;2022-10-22T14:48:37;18.60;99.90
23703;DHT22;12030;50.376;8.762;2022-10-22T14:51:03;18.60;99.90
23703;DHT22;12030;50.376;8.762;2022-10-22T14:53:29;18.60;99.90
23703;DHT22;12030;50.376;8.762;2022-10-22T14:55:55;18.50;99.90
23703;DHT22;12030;50.376;8.762;2022-10-22T14:58:27;18.50;99.90
23703;DHT22;12030;50.376;8.762;2022-10-22T15:00:52;18.50;99.90
23703;DHT22;12030;50.376;8.762;2022-10-22T15:03:18;18.40;99.90
23703;DHT22;12030;50.376;8.762;2022-10-22T15:05:44;18.40;99.90
23703;DHT22;12030;50.376;8.762;2022-10-22T15:08:10;18.40;99.90
23703;DHT22;12030;50.376;8.762;2022-10-22T15:10:36;18.40;99.90
23703;DHT22;12030;50.376;8.762;2022-10-22T15:13:02;18.40;99.90
23703;DHT22;12030;50.376;8.762;2022-10-22T15:15:27;18.40;99.90
23703;DHT22;12030;50.376;8.762;2022-10-22T15:17:53;18.50;99.90
23703;DHT22;12030;50.376;8.762;2022-10-22T15:20:18;18.50;99.90
23703;DHT22;12030;50.376;8.762;2022-10-22T15:22:44;18.50;99.90
23703;DHT22;12030;50.376;8.762;2022-10-22T15:25:10;18.50;99.90
23703;DHT22;12030;50.376;8.762;2022-10-22T15:27:37;18.40;99.90
23703;DHT22;12030;50.376;8.762;2022-10-22T15:30:04;18.40;99.90
23703;DHT22;12030;50.376;8.762;2022-10-22T15:32:29;18.30;99.90
23703;DHT22;12030;50.376;8.762;2022-10-22T15:34:57;18.20;99.90
23703;DHT22;12030;50.376;8.762;2022-10-22T15:37:23;18.20;99.90
23703;DHT22;12030;50.376;8.762;2022-10-22T15:39:48;18.20;99.90
23703;DHT22;12030;50.376;8.762;2022-10-22T15:42:14;18.20;99.90
23703;DHT22;12030;50.376;8.762;2022-10-22T15:44:40;18.10;99.90
23703;DHT22;12030;50.376;8.762;2022-10-22T15:47:06;18.00;99.90
23703;DHT22;12030;50.376;8.762;2022-10-22T15:49:35;18.10;99.90
23703;DHT22;12030;50.376;8.762;2022-10-22T15:52:01;18.00;99.90
23703;DHT22;12030;50.376;8.762;2022-10-22T15:54:28;17.80;99.90
23703;DHT22;12030;50.376;8.762;2022-10-22T15:56:58;17.90;99.90
23703;DHT22;12030;50.376;8.762;2022-10-22T15:59:24;17.80;99.90
23703;DHT22;12030;50.376;8.762;2022-10-22T16:01:50;17.70;99.90
23703;DHT22;12030;50.376;8.762;2022-10-22T16:04:16;17.70;99.90
23703;DHT22;12030;50.376;8.762;2022-10-22T16:06:44;17.60;99.90
23703;DHT22;12030;50.376;8.762;2022-10-22T16:09:19;17.60;99.90
23703;DHT22;12030;50.376;8.762;2022-10-22T16:11:45;17.50;99.90
23703;DHT22;12030;50.376;8.762;2022-10-22T16:14:13;17.40;99.90
23703;DHT22;12030;50.376;8.762;2022-10-22T16:16:43;17.30;99.90
23703;DHT22;12030;50.376;8.762;2022-10-22T16:19:10;17.20;99.90
23703;DHT22;12030;50.376;8.762;2022-10-22T16:21:37;17.10;99.90
23703;DHT22;12030;50.376;8.762;2022-10-22T16:24:03;17.10;99.90
23703;DHT22;12030;50.376;8.762;2022-10-22T16:26:28;16.90;99.90
23703;DHT22;12030;50.376;8.762;2022-10-22T16:28:54;16.80;99.90
23703;DHT22;12030;50.376;8.762;2022-10-22T16:31:19;16.60;99.90
23703;DHT22;12030;50.376;8.762;2022-10-22T16:33:45;16.50;99.90
23703;DHT22;12030;50.376;8.762;2022-10-22T16:36:13;16.40;99.90
23703;DHT22;12030;50.376;8.762;2022-10-22T16:38:39;16.40;99.90
23703;DHT22;12030;50.376;8.762;2022-10-22T16:41:18;16.30;99.90
23703;DHT22;12030;50.376;8.762;2022-10-22T16:43:46;16.20;99.90
23703;DHT22;12030;50.376;8.762;2022-10-22T16:46:20;16.00;99.90
23703;DHT22;12030;50.376;8.762;2022-10-22T16:48:50;16.00;99.90
23703;DHT22;12030;50.376;8.762;2022-10-22T16:51:21;15.90;99.90
23703;DHT22;12030;50.376;8.762;2022-10-22T16:53:49;15.90;99.90
23703;DHT22;12030;50.376;8.762;2022-10-22T16:56:16;15.70;99.90
23703;DHT22;12030;50.376;8.762;2022-10-22T16:58:52;15.60;99.90
23703;DHT22;12030;50.376;8.762;2022-10-22T17:01:20;15.50;99.90
23703;DHT22;12030;50.376;8.762;2022-10-22T17:03:46;15.40;99.90
23703;DHT22;12030;50.376;8.762;2022-10-22T17:06:12;15.30;99.90
23703;DHT22;12030;50.376;8.762;2022-10-22T17:08:39;15.30;99.90
23703;DHT22;12030;50.376;8.762;2022-10-22T17:11:15;15.20;99.90